Terminal Aerodrome Forecast
Issued by NWS

Home | Current Version | Previous Version | Text Only | Print | Product List | Glossary On
Versions: 1 2 3 4 5 6 7 8 9 10 11 12 13
095
FTUS45 KRIW 050523
TAFCPR
TAF
KCPR 050523Z 0506/0606 21017KT P6SM SCT070
     FM051000 30011KT P6SM VCSH SCT025 BKN060
     FM051500 27007KT P6SM SCT060
     FM051900 22018G28KT P6SM SCT250=

USA.gov is the U.S. government's official web portal to all federal, state and local government web resources and services.